createdAt,value
2023-05-04T00:51:24.668Z,92.30
2023-05-04T01:23:20.962Z,94.60
2023-05-04T02:16:21.602Z,99.90
2023-05-04T04:57:40.884Z,99.90
2023-05-04T05:02:43.585Z,99.90
2023-05-04T05:07:45.431Z,99.90
2023-05-04T05:12:47.507Z,99.90
2023-05-04T05:17:49.337Z,99.90
2023-05-04T05:22:52.137Z,99.90
2023-05-04T05:27:54.035Z,99.90
2023-05-04T05:32:55.808Z,99.90
2023-05-04T05:37:58.285Z,99.90
2023-05-04T05:43:00.165Z,99.90
2023-05-04T05:48:02.080Z,99.90
2023-05-04T05:53:03.958Z,99.90
2023-05-04T05:58:05.838Z,99.90
2023-05-04T06:03:07.903Z,99.90
2023-05-04T06:08:09.820Z,99.90
2023-05-04T06:13:11.751Z,99.90
2023-05-04T06:18:13.680Z,99.90
2023-05-04T06:23:16.567Z,99.90
2023-05-04T06:28:18.440Z,99.90
2023-05-04T06:33:20.399Z,99.90
2023-05-04T06:38:22.437Z,99.90
2023-05-04T06:43:24.282Z,99.90
2023-05-04T06:48:26.229Z,99.90
2023-05-04T06:53:28.061Z,99.90
2023-05-04T06:58:29.957Z,99.90
2023-05-04T07:03:31.806Z,99.90
2023-05-04T07:08:33.983Z,99.90
2023-05-04T07:13:36.073Z,99.90
2023-05-04T07:18:39.045Z,99.90
2023-05-04T07:23:40.930Z,99.90
2023-05-04T07:28:43.964Z,99.90
2023-05-04T07:33:45.952Z,99.90
2023-05-04T07:38:47.853Z,99.90
2023-05-04T07:43:49.687Z,99.90
2023-05-04T07:48:51.628Z,99.90
2023-05-04T07:53:53.459Z,99.90
2023-05-04T07:58:56.168Z,99.90
2023-05-04T08:03:58.028Z,99.90
2023-05-04T08:08:59.839Z,99.90
2023-05-04T08:14:01.802Z,99.90
2023-05-04T08:19:03.774Z,99.90
2023-05-04T08:24:05.865Z,99.90
2023-05-04T08:29:10.546Z,99.90
2023-05-04T08:34:12.596Z,99.90
2023-05-04T08:39:14.586Z,99.90
2023-05-04T08:44:17.664Z,99.90
2023-05-04T08:49:23.623Z,99.90
2023-05-04T08:54:26.410Z,99.70
2023-05-04T08:59:29.270Z,99.90
2023-05-04T09:04:31.174Z,99.90
2023-05-04T09:09:33.552Z,97.90
2023-05-04T09:14:36.254Z,97.20
2023-05-04T09:19:39.011Z,98.70
2023-05-04T09:24:40.917Z,96.30
2023-05-04T09:29:43.142Z,94.90
2023-05-04T09:34:51.878Z,94.70
2023-05-04T09:39:55.588Z,93.60
2023-05-04T09:45:00.931Z,93.50
2023-05-04T09:50:22.343Z,95.30
2023-05-04T09:55:24.728Z,92.50
2023-05-04T10:00:29.060Z,91.10
2023-05-04T10:05:30.909Z,92.50
2023-05-04T10:10:33.881Z,88.10
2023-05-04T10:15:37.444Z,86.80
2023-05-04T10:21:17.285Z,86.80
2023-05-04T10:26:55.191Z,83.70
2023-05-04T10:31:57.337Z,84.00
2023-05-04T10:37:00.393Z,78.70
2023-05-04T10:42:03.945Z,78.40
2023-05-04T10:47:08.942Z,74.50
2023-05-04T10:52:18.268Z,69.20
2023-05-04T10:57:20.429Z,69.00
2023-05-04T11:02:23.961Z,66.40
2023-05-04T11:07:39.148Z,67.00
2023-05-04T11:12:43.076Z,61.10
2023-05-04T11:17:54.482Z,60.20
2023-05-04T11:22:56.513Z,55.50
2023-05-04T11:27:58.982Z,54.10
2023-05-04T11:33:02.534Z,52.30
2023-05-04T11:38:04.690Z,50.70
2023-05-04T11:43:09.813Z,51.20
2023-05-04T11:48:13.072Z,47.20
2023-05-04T11:53:15.812Z,46.20
2023-05-04T11:58:24.171Z,43.30
2023-05-04T12:03:43.822Z,42.40
2023-05-04T12:09:02.039Z,40.40
2023-05-04T12:14:11.923Z,38.80
2023-05-04T12:19:15.711Z,41.80
2023-05-04T12:24:17.791Z,39.00
2023-05-04T12:29:19.645Z,35.70
2023-05-04T12:34:21.589Z,33.50
2023-05-04T12:39:24.290Z,35.00
2023-05-04T12:44:26.371Z,34.10
2023-05-04T12:49:28.357Z,31.40
2023-05-04T12:54:30.413Z,31.60
2023-05-04T12:59:32.283Z,32.40
2023-05-04T13:04:34.353Z,33.60
2023-05-04T13:09:36.420Z,33.90
2023-05-04T13:14:40.066Z,34.20
2023-05-04T13:19:42.047Z,34.30
2023-05-04T13:24:44.014Z,33.30
2023-05-04T13:29:46.063Z,33.40
2023-05-04T13:34:48.337Z,33.90
2023-05-04T13:39:50.804Z,34.70
2023-05-04T13:44:52.980Z,34.40
2023-05-04T13:49:55.250Z,34.40
2023-05-04T13:54:57.062Z,33.60
2023-05-04T14:00:07.228Z,32.10
2023-05-04T14:05:10.348Z,33.40
2023-05-04T14:10:13.086Z,32.60
2023-05-04T14:15:16.670Z,32.90
2023-05-04T14:20:18.625Z,32.70
2023-05-04T14:25:22.472Z,31.80
2023-05-04T14:30:24.472Z,30.90
2023-05-04T14:35:26.405Z,32.10
2023-05-04T14:40:28.297Z,32.90
2023-05-04T14:45:30.245Z,31.80
2023-05-04T14:50:32.275Z,31.30
2023-05-04T14:55:36.559Z,31.90
2023-05-04T15:00:38.424Z,31.70
2023-05-04T15:05:40.307Z,31.80
2023-05-04T15:10:42.217Z,32.00
2023-05-04T15:15:44.088Z,31.90
2023-05-04T15:20:52.032Z,31.80
2023-05-04T15:25:53.841Z,31.80
2023-05-04T15:30:56.338Z,32.50
2023-05-04T15:35:58.148Z,33.40
2023-05-04T15:40:59.948Z,33.60
2023-05-04T15:46:01.961Z,33.80
2023-05-04T15:51:03.944Z,33.90
2023-05-04T15:56:06.532Z,33.70
2023-05-04T16:01:10.040Z,34.10
2023-05-04T16:06:15.534Z,34.70
2023-05-04T16:11:17.441Z,34.20
2023-05-04T16:16:19.311Z,33.10
2023-05-04T16:21:21.311Z,32.70
2023-05-04T16:26:23.263Z,32.50
2023-05-04T16:31:25.250Z,32.90
2023-05-04T16:36:27.074Z,32.00
2023-05-04T16:41:30.746Z,33.40
2023-05-04T16:46:32.579Z,32.40
2023-05-04T16:51:34.374Z,32.60
2023-05-04T16:56:36.648Z,33.30
2023-05-04T17:01:38.939Z,33.20
2023-05-04T17:06:40.798Z,33.40
2023-05-04T17:11:42.702Z,34.10
2023-05-04T17:16:44.604Z,34.30
2023-05-04T17:21:46.490Z,35.10
2023-05-04T17:26:48.449Z,35.40
2023-05-04T17:31:50.442Z,35.50
2023-05-04T17:36:52.561Z,35.80
2023-05-04T17:41:54.575Z,35.90
2023-05-04T17:46:56.405Z,36.40
2023-05-04T17:51:58.220Z,37.40
2023-05-04T17:57:00.212Z,37.40
2023-05-04T18:02:03.272Z,37.70
2023-05-04T18:07:05.212Z,38.10
2023-05-04T18:12:07.081Z,38.30
2023-05-04T18:17:08.910Z,38.60
2023-05-04T18:22:10.720Z,38.80
2023-05-04T18:27:12.715Z,39.20
2023-05-04T18:32:14.677Z,39.30
2023-05-04T18:37:16.523Z,40.50
2023-05-04T18:42:18.408Z,40.40
2023-05-04T18:47:20.347Z,40.70
2023-05-04T18:52:22.294Z,41.10
2023-05-04T18:57:24.149Z,41.10
2023-05-04T19:02:26.701Z,41.60
2023-05-04T19:07:28.556Z,42.00
2023-05-04T19:12:30.769Z,42.30
2023-05-04T19:17:35.907Z,42.40
2023-05-04T19:22:37.746Z,43.00
2023-05-04T19:27:39.589Z,43.10
2023-05-04T19:32:41.522Z,44.10
2023-05-04T19:37:43.399Z,44.20
2023-05-04T19:42:46.142Z,44.60
2023-05-04T19:47:48.454Z,44.60
2023-05-04T19:52:50.648Z,45.30
2023-05-04T19:57:52.826Z,45.60
2023-05-04T20:02:54.740Z,45.60
2023-05-04T20:07:56.982Z,45.60
2023-05-04T20:12:59.018Z,45.90
2023-05-04T20:18:01.115Z,46.20
2023-05-04T20:23:03.327Z,47.20
2023-05-04T20:28:05.325Z,47.00
2023-05-04T20:33:07.186Z,47.30
2023-05-04T20:38:09.263Z,48.90
